createdAt,value
2022-08-05T00:02:07.705Z,100279.13
2022-08-05T00:04:46.351Z,100282.25
2022-08-05T00:08:01.066Z,100276.94
2022-08-05T00:10:27.147Z,100275.47
2022-08-05T00:13:01.011Z,100277.78
2022-08-05T00:15:55.016Z,100275.94
2022-08-05T00:18:30.789Z,100275.69
2022-08-05T00:21:06.462Z,100272.97
2022-08-05T00:23:46.345Z,100272.09
2022-08-05T00:26:21.999Z,100284.66
2022-08-05T00:28:56.018Z,100274.78
2022-08-05T00:31:53.554Z,100280.38
2022-08-05T00:34:56.058Z,100276.78
2022-08-05T00:37:18.834Z,100275.94
2022-08-05T00:39:58.574Z,100273.38
2022-08-05T00:42:35.487Z,100277.06
2022-08-05T00:45:13.466Z,100276.38
2022-08-05T00:47:57.043Z,100274.50
2022-08-05T00:50:31.740Z,100272.63
2022-08-05T00:53:09.783Z,100267.19
2022-08-05T00:56:00.480Z,100266.22
2022-08-05T00:58:34.108Z,100264.50
2022-08-05T01:01:09.016Z,100265.50
2022-08-05T01:03:45.161Z,100263.63
2022-08-05T01:06:32.398Z,100269.91
2022-08-05T01:09:07.889Z,100264.50
2022-08-05T01:11:42.899Z,100255.50
2022-08-05T01:14:28.440Z,100255.63
2022-08-05T01:17:07.391Z,100256.63
2022-08-05T01:20:01.338Z,100254.22
2022-08-05T01:22:54.131Z,100247.78
2022-08-05T01:25:54.852Z,100245.75
2022-08-05T01:28:37.111Z,100252.34
2022-08-05T01:31:18.291Z,100254.34
2022-08-05T01:33:58.427Z,100250.91
2022-08-05T01:36:37.111Z,100253.75
2022-08-05T01:39:36.069Z,100244.91
2022-08-05T01:42:15.214Z,100245.03
2022-08-05T01:44:54.339Z,100242.44
2022-08-05T01:47:38.796Z,100247.97
2022-08-05T01:50:19.245Z,100238.41
2022-08-05T01:53:05.541Z,100233.28
2022-08-05T01:55:44.863Z,100242.53
2022-08-05T01:58:41.025Z,100231.81
2022-08-05T02:01:16.042Z,100242.81
2022-08-05T02:03:59.159Z,100241.06
2022-08-05T02:06:38.241Z,100237.78
2022-08-05T02:09:14.565Z,100238.06
2022-08-05T02:11:52.855Z,100224.75
2022-08-05T02:14:32.255Z,100221.19
2022-08-05T02:18:28.745Z,100232.91
2022-08-05T02:20:20.709Z,100222.19
2022-08-05T02:22:59.858Z,100219.75
2022-08-05T02:25:49.396Z,100218.19
2022-08-05T02:28:29.003Z,100211.03
2022-08-05T02:31:14.447Z,100210.44
2022-08-05T02:33:57.416Z,100217.75
2022-08-05T02:36:33.360Z,100211.56
2022-08-05T02:39:11.134Z,100206.41
2022-08-05T02:42:01.359Z,100208.41
2022-08-05T02:44:37.562Z,100203.97
2022-08-05T02:47:12.319Z,100207.84
2022-08-05T02:49:48.366Z,100198.09
2022-08-05T02:52:30.077Z,100200.09
2022-08-05T02:55:10.885Z,100203.94
2022-08-05T02:58:19.652Z,100198.78
2022-08-05T03:00:40.660Z,100195.34
2022-08-05T03:03:23.474Z,100198.19
2022-08-05T03:06:53.819Z,100185.75
2022-08-05T03:08:56.180Z,100189.34
2022-08-05T03:11:54.823Z,100184.91
2022-08-05T03:14:23.835Z,100185.75
2022-08-05T03:16:57.552Z,100194.78
2022-08-05T03:19:34.566Z,100185.94
2022-08-05T03:22:16.047Z,100191.34
2022-08-05T03:24:52.698Z,100184.19
2022-08-05T03:27:29.731Z,100184.47
2022-08-05T03:30:21.293Z,100184.47
2022-08-05T03:33:08.100Z,100188.16
2022-08-05T03:35:41.986Z,100188.28
2022-08-05T03:38:23.818Z,100184.88
2022-08-05T03:41:10.714Z,100184.03
2022-08-05T03:44:08.075Z,100184.88
2022-08-05T03:46:38.581Z,100176.75
2022-08-05T03:49:12.166Z,100172.03
2022-08-05T03:52:37.259Z,100180.91
2022-08-05T03:55:52.639Z,100185.19
2022-08-05T03:57:50.433Z,100181.34
2022-08-05T04:00:29.587Z,100176.50
2022-08-05T04:03:08.168Z,100180.69
2022-08-05T04:05:49.227Z,100166.59
2022-08-05T04:08:35.207Z,100168.88
2022-08-05T04:11:12.654Z,100171.16
2022-08-05T04:13:53.325Z,100167.19
2022-08-05T04:16:32.351Z,100173.78
2022-08-05T04:19:10.568Z,100174.25
2022-08-05T04:22:08.278Z,100180.81
2022-08-05T04:24:38.258Z,100176.44
2022-08-05T04:27:19.332Z,100176.72
2022-08-05T04:30:08.605Z,100167.78
2022-08-05T04:32:42.669Z,100178.66
2022-08-05T04:35:17.499Z,100184.25
2022-08-05T04:38:01.488Z,100176.09
2022-08-05T04:40:47.826Z,100174.25
2022-08-05T04:43:26.093Z,100183.13
2022-08-05T04:45:59.631Z,100180.41
2022-08-05T04:48:33.397Z,100177.66
2022-08-05T04:51:11.483Z,100187.56
2022-08-05T04:53:45.388Z,100190.13
2022-08-05T04:56:34.929Z,100187.38
2022-08-05T04:59:21.619Z,100172.91
2022-08-05T05:02:35.171Z,100173.72
2022-08-05T05:04:52.483Z,100183.44
2022-08-05T05:07:36.021Z,100176.66
2022-08-05T05:10:10.425Z,100183.94
2022-08-05T05:12:44.209Z,100183.03
2022-08-05T05:15:54.271Z,100182.00
2022-08-05T05:18:15.415Z,100181.63
2022-08-05T05:21:03.905Z,100188.72
2022-08-05T05:23:39.051Z,100194.81
2022-08-05T05:26:32.768Z,100200.75
2022-08-05T05:29:10.152Z,100197.81
2022-08-05T05:31:49.999Z,100187.72
2022-08-05T05:34:26.937Z,100192.38
2022-08-05T05:37:00.827Z,100196.59
2022-08-05T05:39:35.178Z,100191.56
2022-08-05T05:42:10.011Z,100193.56
2022-08-05T05:44:46.021Z,100193.72
2022-08-05T05:47:21.489Z,100195.88
2022-08-05T05:50:01.498Z,100188.28
2022-08-05T05:52:38.115Z,100195.00
2022-08-05T05:55:15.684Z,100201.34
2022-08-05T05:57:52.870Z,100199.53
2022-08-05T06:00:27.757Z,100206.69
2022-08-05T06:03:40.854Z,100201.84
2022-08-05T06:06:00.263Z,100198.66
2022-08-05T06:08:34.959Z,100197.16
2022-08-05T06:11:13.510Z,100194.78
2022-08-05T06:13:53.798Z,100198.75
2022-08-05T06:16:33.051Z,100206.13
2022-08-05T06:19:12.712Z,100198.94
2022-08-05T06:21:59.941Z,100197.06
2022-08-05T06:24:34.764Z,100197.38
2022-08-05T06:27:17.227Z,100200.31
2022-08-05T06:30:04.632Z,100198.72
2022-08-05T06:32:51.641Z,100191.84
2022-08-05T06:36:07.517Z,100185.31
2022-08-05T06:38:35.988Z,100195.69
2022-08-05T06:41:16.852Z,100175.47
2022-08-05T06:43:57.926Z,100182.97
2022-08-05T06:46:33.536Z,100177.97
2022-08-05T06:49:08.349Z,100176.41
2022-08-05T06:51:43.530Z,100173.25
2022-08-05T06:54:18.070Z,100181.72
2022-08-05T06:56:54.880Z,100171.19
2022-08-05T06:59:55.201Z,100166.63
2022-08-05T07:02:32.496Z,100172.00
2022-08-05T07:05:14.221Z,100162.06
2022-08-05T07:07:53.473Z,100165.72
2022-08-05T07:10:30.525Z,100165.19
2022-08-05T07:13:39.467Z,100160.94
2022-08-05T07:17:59.722Z,100162.63
2022-08-05T07:20:16.686Z,100161.38
2022-08-05T07:22:28.662Z,100165.84
2022-08-05T07:25:22.833Z,100164.13
2022-08-05T07:28:03.739Z,100164.06
2022-08-05T07:30:41.390Z,100161.25
2022-08-05T07:33:17.359Z,100168.59
2022-08-05T07:36:02.194Z,100169.41
2022-08-05T07:38:43.684Z,100167.69
2022-08-05T07:42:14.610Z,100177.16
2022-08-05T07:44:18.987Z,100180.25
2022-08-05T07:46:53.079Z,100186.50
2022-08-05T07:49:27.582Z,100176.63
2022-08-05T07:52:01.753Z,100182.47
2022-08-05T07:54:41.235Z,100180.03
2022-08-05T07:57:51.291Z,100175.44
2022-08-05T08:00:17.057Z,100167.91
2022-08-05T08:03:15.186Z,100163.25
2022-08-05T08:05:49.767Z,100163.69
2022-08-05T08:08:23.618Z,100167.75
2022-08-05T08:11:00.838Z,100165.84
2022-08-05T08:13:49.331Z,100162.88
2022-08-05T08:16:35.948Z,100169.00
2022-08-05T08:20:10.418Z,100154.13
2022-08-05T08:22:16.936Z,100160.63
2022-08-05T08:24:51.460Z,100165.22
2022-08-05T08:27:40.409Z,100161.53
2022-08-05T08:30:33.935Z,100148.97
2022-08-05T08:33:13.963Z,100164.34
2022-08-05T08:35:53.860Z,100158.75
2022-08-05T08:38:41.651Z,100156.22
2022-08-05T08:41:17.333Z,100146.44
2022-08-05T08:45:21.320Z,100147.69
2022-08-05T08:46:50.292Z,100151.88
2022-08-05T08:50:23.369Z,100147.94
2022-08-05T08:52:25.358Z,100160.19
2022-08-05T08:55:00.014Z,100163.31
2022-08-05T08:57:48.300Z,100153.75
2022-08-05T09:00:30.245Z,100159.84
2022-08-05T09:03:07.901Z,100156.50
2022-08-05T09:06:08.602Z,100156.66
2022-08-05T09:08:35.474Z,100162.25
2022-08-05T09:11:15.208Z,100151.63
2022-08-05T09:14:10.113Z,100153.84
2022-08-05T09:16:42.756Z,100151.50
2022-08-05T09:19:24.709Z,100149.25
2022-08-05T09:22:22.719Z,100142.06
2022-08-05T09:24:59.723Z,100137.47
2022-08-05T09:28:04.704Z,100138.22
2022-08-05T09:30:29.186Z,100155.34
2022-08-05T09:33:04.926Z,100161.56
2022-08-05T09:35:54.051Z,100151.19
2022-08-05T09:38:29.566Z,100142.06
2022-08-05T09:41:08.732Z,100127.84
2022-08-05T09:43:42.364Z,100122.50
2022-08-05T09:46:28.401Z,100128.50
2022-08-05T09:49:07.683Z,100117.66
2022-08-05T09:51:53.578Z,100110.91
2022-08-05T09:54:32.549Z,100106.81
2022-08-05T09:57:06.223Z,100119.72
2022-08-05T09:59:59.581Z,100115.50
2022-08-05T10:02:35.476Z,100111.28
2022-08-05T10:05:11.987Z,100120.25
2022-08-05T10:08:36.481Z,100118.81
2022-08-05T10:10:54.642Z,100114.84
2022-08-05T10:13:43.824Z,100110.72
2022-08-05T10:16:33.910Z,100109.03
2022-08-05T10:19:09.428Z,100109.34
2022-08-05T10:21:43.781Z,100104.56
2022-08-05T10:24:19.952Z,100089.13
2022-08-05T10:27:01.770Z,100083.84
2022-08-05T10:30:06.804Z,100083.34
2022-08-05T10:32:53.842Z,100082.50
2022-08-05T10:35:33.803Z,100073.88
2022-08-05T10:38:15.263Z,100075.56
2022-08-05T10:41:00.718Z,100070.25
2022-08-05T10:43:44.927Z,100067.72
2022-08-05T10:46:23.788Z,100070.78
2022-08-05T10:49:00.592Z,100064.66
2022-08-05T10:51:48.622Z,100073.59
2022-08-05T10:54:56.168Z,100057.00
2022-08-05T10:57:34.235Z,100050.72
2022-08-05T11:00:19.170Z,100065.50
2022-08-05T11:03:23.004Z,100049.50
2022-08-05T11:06:20.898Z,100040.34
2022-08-05T11:09:16.980Z,100054.47
2022-08-05T11:11:52.886Z,100043.19
2022-08-05T11:17:59.813Z,100033.03
2022-08-05T11:20:43.737Z,100028.19
2022-08-05T11:23:33.224Z,100033.53
2022-08-05T11:26:09.448Z,100038.31
2022-08-05T11:28:47.088Z,100023.22
2022-08-05T11:31:57.835Z,100033.91
2022-08-05T11:34:38.843Z,100041.88
2022-08-05T11:38:28.420Z,100031.94
2022-08-05T11:40:06.595Z,100038.19
2022-08-05T11:42:47.370Z,100023.72
2022-08-05T11:46:14.745Z,100032.50
2022-08-05T11:48:16.630Z,100031.16
2022-08-05T11:50:52.910Z,100015.22
2022-08-05T11:53:26.847Z,100020.53
2022-08-05T11:56:07.536Z,100024.59
2022-08-05T11:58:51.304Z,100031.72
2022-08-05T12:01:26.940Z,100026.28
2022-08-05T12:04:01.962Z,100013.72
2022-08-05T12:06:37.427Z,100010.56
2022-08-05T12:09:53.445Z,100016.00
2022-08-05T12:12:24.038Z,100001.19
2022-08-05T12:15:00.124Z,100003.09
2022-08-05T12:18:02.720Z,99995.53
2022-08-05T12:20:34.076Z,100000.75
2022-08-05T12:23:13.584Z,99999.81
2022-08-05T12:25:57.322Z,99997.81
2022-08-05T12:28:39.015Z,99999.13
2022-08-05T12:31:12.705Z,99995.25
2022-08-05T12:33:57.538Z,99998.91
2022-08-05T12:36:35.448Z,99989.06
2022-08-05T12:39:09.448Z,99993.44
2022-08-05T12:41:43.585Z,99988.28
2022-08-05T12:44:32.676Z,99987.69
2022-08-05T12:47:12.589Z,99990.59
2022-08-05T12:50:04.561Z,99985.47
2022-08-05T12:52:42.649Z,99984.59
2022-08-05T12:55:22.139Z,99983.19
2022-08-05T12:58:38.513Z,99984.44
2022-08-05T13:02:03.287Z,99977.81
2022-08-05T13:03:48.885Z,99981.19
2022-08-05T13:06:29.410Z,99973.97
2022-08-05T13:09:10.432Z,99977.94
2022-08-05T13:12:02.061Z,99967.84
2022-08-05T13:14:38.722Z,99967.25
2022-08-05T13:17:31.540Z,99961.19
2022-08-05T13:20:20.332Z,99953.34
2022-08-05T13:22:57.539Z,99959.75
2022-08-05T13:25:58.847Z,99950.53
2022-08-05T13:28:26.878Z,99944.38
2022-08-05T13:31:03.300Z,99946.16
2022-08-05T13:34:23.461Z,99946.31
2022-08-05T13:36:38.805Z,99945.47
2022-08-05T13:40:14.313Z,99945.84
2022-08-05T13:42:14.798Z,99948.16
2022-08-05T13:44:49.114Z,99947.63
2022-08-05T13:47:34.946Z,99943.66
2022-08-05T13:50:14.792Z,99939.28
2022-08-05T13:52:50.276Z,99935.50
2022-08-05T13:55:41.041Z,99935.50
2022-08-05T13:58:23.277Z,99919.53
2022-08-05T14:01:05.417Z,99930.59
2022-08-05T14:03:40.836Z,99930.44
2022-08-05T14:06:26.757Z,99924.97
2022-08-05T14:09:01.552Z,99927.09
2022-08-05T14:12:00.462Z,99930.94
2022-08-05T14:14:37.585Z,99929.19
2022-08-05T14:17:16.889Z,99926.84
2022-08-05T14:19:55.462Z,99927.22
2022-08-05T14:22:34.526Z,99917.88
2022-08-05T14:25:21.362Z,99924.84
2022-08-05T14:27:55.944Z,99909.94
2022-08-05T14:30:30.866Z,99908.88
2022-08-05T14:33:05.263Z,99912.28
2022-08-05T14:35:50.477Z,99910.13
2022-08-05T14:38:32.911Z,99908.41
2022-08-05T14:41:09.609Z,99912.66
2022-08-05T14:44:02.461Z,99917.66
2022-08-05T14:46:38.634Z,99911.44
2022-08-05T14:49:12.285Z,99921.13
2022-08-05T14:51:45.957Z,99911.97
2022-08-05T14:54:27.575Z,99909.13
2022-08-05T14:57:05.362Z,99888.59
2022-08-05T14:59:43.421Z,99895.75
2022-08-05T15:02:18.530Z,99896.13
2022-08-05T15:04:54.142Z,99891.75
2022-08-05T15:08:11.621Z,99897.13
2022-08-05T15:10:28.868Z,99890.34
2022-08-05T15:13:04.785Z,99904.25
2022-08-05T15:15:55.881Z,99891.97
2022-08-05T15:18:31.421Z,99886.03
2022-08-05T15:21:07.464Z,99885.41
2022-08-05T15:23:41.675Z,99882.88
2022-08-05T15:26:15.660Z,99889.47
2022-08-05T15:29:05.444Z,99879.09
2022-08-05T15:31:39.770Z,99881.47
2022-08-05T15:34:32.376Z,99876.63
2022-08-05T15:38:09.325Z,99881.09
2022-08-05T15:41:00.212Z,99876.41
2022-08-05T15:43:00.462Z,99875.56
2022-08-05T15:45:45.747Z,99878.34
2022-08-05T15:48:21.199Z,99884.94
2022-08-05T15:51:03.450Z,99871.09
2022-08-05T15:53:51.356Z,99867.97
2022-08-05T15:56:25.368Z,99869.03
2022-08-05T15:59:04.252Z,99861.59
2022-08-05T16:01:52.064Z,99877.72
2022-08-05T16:04:27.030Z,99877.09
2022-08-05T16:07:02.342Z,99866.09
2022-08-05T16:09:35.921Z,99879.09
2022-08-05T16:12:11.481Z,99871.63
2022-08-05T16:14:45.936Z,99878.06
2022-08-05T16:17:20.288Z,99873.88
2022-08-05T16:20:05.379Z,99866.03
2022-08-05T16:22:46.277Z,99860.94
2022-08-05T16:25:20.555Z,99869.25
2022-08-05T16:28:04.878Z,99870.69
2022-08-05T16:30:39.694Z,99880.44
2022-08-05T16:33:15.521Z,99877.22
2022-08-05T16:35:53.060Z,99871.31
2022-08-05T16:38:29.332Z,99871.56
2022-08-05T16:42:12.684Z,99871.78
2022-08-05T16:43:57.691Z,99870.06
2022-08-05T16:46:31.593Z,99865.63
2022-08-05T16:49:06.752Z,99864.31
2022-08-05T16:51:42.568Z,99874.09
2022-08-05T16:54:31.924Z,99865.72
2022-08-05T16:57:14.957Z,99868.03
2022-08-05T17:00:01.350Z,99869.94
2022-08-05T17:02:38.106Z,99862.50
2022-08-05T17:05:11.833Z,99872.94
2022-08-05T17:07:53.136Z,99873.53
2022-08-05T17:10:30.619Z,99874.06
2022-08-05T17:13:04.495Z,99869.13
2022-08-05T17:15:47.858Z,99869.44
2022-08-05T17:18:22.243Z,99873.97
2022-08-05T17:20:56.278Z,99874.25
2022-08-05T17:24:05.479Z,99875.84
2022-08-05T17:26:25.109Z,99872.13
2022-08-05T17:28:59.375Z,99869.41
2022-08-05T17:31:56.933Z,99866.44
2022-08-05T17:34:32.622Z,99867.75
2022-08-05T17:37:36.149Z,99864.38
2022-08-05T17:40:03.368Z,99866.53
2022-08-05T17:42:46.425Z,99874.84
2022-08-05T17:45:29.733Z,99869.56
2022-08-05T17:48:12.534Z,99869.94
2022-08-05T17:50:46.243Z,99860.22
2022-08-05T17:53:20.939Z,99862.34
2022-08-05T17:55:54.695Z,99860.25
2022-08-05T17:58:32.821Z,99849.66
2022-08-05T18:01:08.187Z,99856.22
2022-08-05T18:03:58.678Z,99855.13
2022-08-05T18:06:40.326Z,99856.16
2022-08-05T18:10:00.032Z,99862.31
2022-08-05T18:12:35.810Z,99861.66
2022-08-05T18:15:11.721Z,99861.66
2022-08-05T18:17:59.229Z,99860.56
2022-08-05T18:20:35.505Z,99859.91
2022-08-05T18:23:12.244Z,99857.31
2022-08-05T18:25:47.667Z,99856.66
2022-08-05T18:28:31.632Z,99861.28
2022-08-05T18:31:07.224Z,99855.13
2022-08-05T18:33:47.170Z,99855.50
2022-08-05T18:36:27.860Z,99858.66
2022-08-05T18:39:01.988Z,99863.19
2022-08-05T18:41:56.221Z,99862.06
2022-08-05T18:44:34.970Z,99867.72
2022-08-05T18:47:26.694Z,99871.56
2022-08-05T18:50:17.956Z,99886.84
2022-08-05T18:52:51.909Z,99881.03
2022-08-05T18:55:25.628Z,99884.34
2022-08-05T18:58:03.593Z,99880.50
2022-08-05T19:00:37.569Z,99882.34
2022-08-05T19:03:17.877Z,99897.28
2022-08-05T19:06:20.140Z,99897.66
2022-08-05T19:08:56.083Z,99902.69
2022-08-05T19:11:59.412Z,99904.38
2022-08-05T19:14:59.368Z,99910.53
2022-08-05T19:17:17.702Z,99903.94
2022-08-05T19:19:54.321Z,99902.81
2022-08-05T19:22:28.088Z,99905.31
2022-08-05T19:25:02.642Z,99902.50
2022-08-05T19:27:36.481Z,99903.09
2022-08-05T19:30:11.162Z,99896.47
2022-08-05T19:32:45.842Z,99895.34
2022-08-05T19:35:21.798Z,99893.16
2022-08-05T19:38:06.247Z,99897.31
2022-08-05T19:40:43.961Z,99894.97
2022-08-05T19:44:04.572Z,99897.44
2022-08-05T19:46:16.829Z,99890.84
2022-08-05T19:49:04.383Z,99895.22
2022-08-05T19:52:08.350Z,99888.59
2022-08-05T19:54:34.337Z,99894.47
2022-08-05T19:57:09.922Z,99892.13
2022-08-05T19:59:56.536Z,99889.75
2022-08-05T20:02:45.174Z,99892.00
2022-08-05T20:05:24.167Z,99893.47
2022-08-05T20:07:59.785Z,99893.19
2022-08-05T20:10:33.434Z,99891.00
2022-08-05T20:13:07.084Z,99883.31
2022-08-05T20:15:50.783Z,99882.88
2022-08-05T20:18:32.812Z,99887.00
2022-08-05T20:21:09.267Z,99884.00
2022-08-05T20:23:50.911Z,99885.59
2022-08-05T20:26:27.182Z,99880.66
2022-08-05T20:29:01.085Z,99883.59
2022-08-05T20:31:43.048Z,99882.28
2022-08-05T20:34:26.193Z,99890.88
2022-08-05T20:36:59.920Z,99894.00
2022-08-05T20:39:36.697Z,99894.28
2022-08-05T20:42:11.617Z,99891.16
2022-08-05T20:44:45.389Z,99900.09
2022-08-05T20:47:19.669Z,99888.38
2022-08-05T20:50:07.469Z,99896.03
2022-08-05T20:52:42.429Z,99891.34
2022-08-05T20:55:54.638Z,99888.47
2022-08-05T20:58:11.276Z,99895.63
2022-08-05T21:00:54.390Z,99896.84
2022-08-05T21:03:28.500Z,99903.72
2022-08-05T21:06:28.121Z,99899.66
2022-08-05T21:09:02.402Z,99900.53
2022-08-05T21:12:07.533Z,99895.72
2022-08-05T21:14:34.661Z,99892.81
2022-08-05T21:17:09.037Z,99900.00
2022-08-05T21:19:47.582Z,99904.25
2022-08-05T21:22:24.155Z,99897.75
2022-08-05T21:24:57.834Z,99899.31
2022-08-05T21:27:38.976Z,99888.91
2022-08-05T21:30:17.609Z,99888.41
2022-08-05T21:32:51.593Z,99893.41
2022-08-05T21:35:30.174Z,99899.06
2022-08-05T21:38:17.478Z,99900.06
2022-08-05T21:40:51.174Z,99898.09
2022-08-05T21:43:26.334Z,99888.34
2022-08-05T21:46:07.560Z,99891.19
2022-08-05T21:48:41.290Z,99895.44
2022-08-05T21:51:25.225Z,99887.06
2022-08-05T21:54:08.137Z,99889.75
2022-08-05T21:56:44.256Z,99883.66
2022-08-05T21:59:24.299Z,99884.69
2022-08-05T22:02:00.063Z,99888.13
2022-08-05T22:04:33.752Z,99886.63
2022-08-05T22:07:08.693Z,99892.63
2022-08-05T22:09:47.343Z,99889.78
2022-08-05T22:12:21.268Z,99891.50
2022-08-05T22:15:01.743Z,99897.69
2022-08-05T22:17:48.527Z,99894.47
2022-08-05T22:20:29.823Z,99890.66
2022-08-05T22:23:22.361Z,99890.41
2022-08-05T22:26:15.064Z,99891.97
2022-08-05T22:28:48.822Z,99893.34
2022-08-05T22:31:24.687Z,99892.66
2022-08-05T22:34:03.697Z,99889.94
2022-08-05T22:36:38.323Z,99888.25
2022-08-05T22:39:16.251Z,99894.75
2022-08-05T22:44:36.634Z,99893.19
2022-08-05T22:47:11.083Z,99896.09
2022-08-05T22:50:20.259Z,99902.63
2022-08-05T22:52:40.722Z,99938.16
2022-08-05T22:55:19.081Z,99950.44
2022-08-05T22:57:55.180Z,99939.03
2022-08-05T23:00:30.315Z,99940.22
2022-08-05T23:03:05.199Z,99960.56
2022-08-05T23:05:38.815Z,99955.97
2022-08-05T23:08:14.270Z,99948.63
2022-08-05T23:10:50.873Z,99955.66
2022-08-05T23:13:26.932Z,99951.72
2022-08-05T23:16:02.073Z,99948.31
2022-08-05T23:18:35.807Z,99937.56
2022-08-05T23:21:12.163Z,99923.22
2022-08-05T23:23:50.151Z,99924.06
2022-08-05T23:26:25.916Z,99930.38
2022-08-05T23:29:01.218Z,99935.66
2022-08-05T23:31:36.282Z,99946.41
2022-08-05T23:34:09.897Z,99945.56
2022-08-05T23:36:44.607Z,99949.50
2022-08-05T23:39:31.759Z,99953.09
2022-08-05T23:42:08.683Z,99945.06
2022-08-05T23:44:54.234Z,99954.28
2022-08-05T23:47:33.583Z,99949.31
2022-08-05T23:50:09.337Z,99943.16
2022-08-05T23:52:50.438Z,99942.66
2022-08-05T23:55:31.104Z,99933.75
2022-08-05T23:58:05.021Z,99935.81
